Time;durP1;ratioP1;P1;durP2;ratioP2;P2;SDS_P1;SDS_P2;PMS_P1;PMS_P2;Temp;Humidity;BMP_temperature;BMP_pressure;BME280_temperature;BME280_humidity;BME280_pressure;Samples;Min_cycle;Max_cycle;Signal;HPM_P1;HPM_P2
2023/12/22 00:00:17;;;;;;;1.90;1.80;;;;;;;;;;5041715;28;20206;-84
2023/12/22 00:02:44;;;;;;;1.53;1.53;;;;;;;;;;5053583;28;20218;-83
2023/12/22 00:05:12;;;;;;;3.60;1.70;;;;;;;;;;5043509;28;20207;-82
2023/12/22 00:07:39;;;;;;;4.30;1.73;;;;;;;;;;5053962;28;20213;-82
2023/12/22 00:10:06;;;;;;;1.70;1.60;;;;;;;;;;5052408;28;20217;-82
2023/12/22 00:12:34;;;;;;;1.50;1.50;;;;;;;;;;5053259;28;20252;-82
2023/12/22 00:15:01;;;;;;;1.73;1.70;;;;;;;;;;5054104;28;20605;-83
2023/12/22 00:17:28;;;;;;;1.80;1.70;;;;;;;;;;5046398;28;20324;-83
2023/12/22 00:19:58;;;;;;;1.80;1.27;;;;;;;;;;5035661;28;20672;-83
2023/12/22 00:22:26;;;;;;;1.83;1.73;;;;;;;;;;5053090;28;20294;-82
2023/12/22 00:24:53;;;;;;;1.60;1.60;;;;;;;;;;5051269;28;20229;-82
2023/12/22 00:27:20;;;;;;;1.70;1.60;;;;;;;;;;5053048;28;20310;-82
2023/12/22 00:29:48;;;;;;;1.70;1.70;;;;;;;;;;5049507;28;20195;-82
2023/12/22 00:32:15;;;;;;;1.57;1.53;;;;;;;;;;5051210;28;20226;-82
2023/12/22 00:34:42;;;;;;;1.60;1.60;;;;;;;;;;5053517;28;20622;-82
2023/12/22 00:37:09;;;;;;;1.40;1.40;;;;;;;;;;5052942;28;20229;-83
2023/12/22 00:39:36;;;;;;;2.80;1.80;;;;;;;;;;5053669;28;20232;-83
2023/12/22 00:42:04;;;;;;;1.70;1.70;;;;;;;;;;5052211;28;20229;-82
2023/12/22 00:44:31;;;;;;;1.50;1.50;;;;;;;;;;5053379;28;20212;-82
2023/12/22 00:46:59;;;;;;;1.43;1.43;;;;;;;;;;5052580;28;20230;-83
2023/12/22 00:49:26;;;;;;;1.57;1.57;;;;;;;;;;5049230;28;20226;-83
2023/12/22 00:51:53;;;;;;;1.30;1.30;;;;;;;;;;5047845;28;20238;-83
2023/12/22 00:54:20;;;;;;;1.40;1.40;;;;;;;;;;5052351;28;20699;-83
2023/12/22 00:56:47;;;;;;;1.53;1.47;;;;;;;;;;5052543;28;20312;-83
2023/12/22 00:59:14;;;;;;;2.80;1.50;;;;;;;;;;5052683;28;20233;-82
2023/12/22 01:01:41;;;;;;;1.60;1.50;;;;;;;;;;5039426;28;20249;-83
2023/12/22 01:04:10;;;;;;;1.80;1.50;;;;;;;;;;5047555;28;20202;-83
2023/12/22 01:06:38;;;;;;;1.53;1.50;;;;;;;;;;5045375;28;20242;-82
2023/12/22 01:09:05;;;;;;;1.40;1.40;;;;;;;;;;5052722;28;20408;-83
2023/12/22 01:11:32;;;;;;;1.53;1.53;;;;;;;;;;5052312;28;20236;-83
2023/12/22 01:13:59;;;;;;;1.77;1.70;;;;;;;;;;5052493;28;20569;-83
2023/12/22 01:16:26;;;;;;;1.50;1.47;;;;;;;;;;5052077;28;20237;-82
2023/12/22 01:18:53;;;;;;;1.70;1.60;;;;;;;;;;5052605;28;20248;-83
2023/12/22 01:21:22;;;;;;;1.50;1.50;;;;;;;;;;5050697;28;20722;-82
2023/12/22 01:23:49;;;;;;;1.50;1.50;;;;;;;;;;5040734;28;20214;-83
2023/12/22 01:26:16;;;;;;;1.50;1.50;;;;;;;;;;5041961;28;20317;-83
2023/12/22 01:28:43;;;;;;;1.67;1.57;;;;;;;;;;5052310;28;20228;-83
2023/12/22 01:31:10;;;;;;;1.47;1.47;;;;;;;;;;5051718;28;20237;-83
2023/12/22 01:33:37;;;;;;;2.77;1.70;;;;;;;;;;5052563;28;20209;-83
2023/12/22 01:36:04;;;;;;;1.83;1.73;;;;;;;;;;5051878;28;20294;-83
2023/12/22 01:38:32;;;;;;;1.70;1.60;;;;;;;;;;5037728;28;20236;-83
2023/12/22 01:40:59;;;;;;;1.63;1.60;;;;;;;;;;5039857;28;20276;-83
2023/12/22 01:43:26;;;;;;;1.97;1.87;;;;;;;;;;5052201;28;20212;-82
2023/12/22 01:45:56;;;;;;;1.80;1.70;;;;;;;;;;5051383;28;20287;-82
2023/12/22 01:48:23;;;;;;;1.70;1.60;;;;;;;;;;5051623;28;20218;-82
2023/12/22 01:50:51;;;;;;;1.97;1.60;;;;;;;;;;5045770;28;20313;-82
2023/12/22 01:53:18;;;;;;;1.80;1.70;;;;;;;;;;5032450;28;20203;-82
2023/12/22 01:55:47;;;;;;;1.93;1.70;;;;;;;;;;5037548;28;20258;-82
2023/12/22 01:58:14;;;;;;;1.40;1.40;;;;;;;;;;5051693;28;20299;-82
2023/12/22 02:00:41;;;;;;;1.53;1.53;;;;;;;;;;5048971;28;20247;-82
2023/12/22 02:03:09;;;;;;;2.10;1.70;;;;;;;;;;5034869;28;20217;-82
2023/12/22 02:05:36;;;;;;;1.90;1.80;;;;;;;;;;5050773;28;20244;-81
2023/12/22 02:08:03;;;;;;;1.80;1.70;;;;;;;;;;5048568;28;20276;-81
2023/12/22 02:10:30;;;;;;;1.60;1.60;;;;;;;;;;5063988;28;20647;-81
2023/12/22 02:12:58;;;;;;;1.60;1.60;;;;;;;;;;5031247;28;20249;-81
2023/12/22 02:15:26;;;;;;;2.43;1.63;;;;;;;;;;5034469;28;20232;-81
2023/12/22 02:17:56;;;;;;;1.80;1.70;;;;;;;;;;5051130;28;20603;-81
2023/12/22 02:20:23;;;;;;;1.40;1.40;;;;;;;;;;5051064;28;20245;-81
2023/12/22 02:22:54;;;;;;;1.50;1.50;;;;;;;;;;5048263;28;20202;-81
2023/12/22 02:25:21;;;;;;;1.67;1.63;;;;;;;;;;5034022;28;20217;-82
2023/12/22 02:27:49;;;;;;;1.50;1.50;;;;;;;;;;5051502;28;20240;-82
2023/12/22 02:30:21;;;;;;;1.50;1.50;;;;;;;;;;5049659;28;20216;-82
2023/12/22 02:32:49;;;;;;;1.20;1.20;;;;;;;;;;5032982;28;20237;-82
2023/12/22 02:35:19;;;;;;;1.40;1.40;;;;;;;;;;5049434;28;20202;-82
2023/12/22 02:37:47;;;;;;;2.70;1.40;;;;;;;;;;5051524;28;20279;-82
2023/12/22 02:40:15;;;;;;;1.40;1.40;;;;;;;;;;5050618;28;20548;-82
2023/12/22 02:42:43;;;;;;;1.63;1.60;;;;;;;;;;5051187;28;20243;-82
2023/12/22 02:45:14;;;;;;;2.97;1.50;;;;;;;;;;5050718;28;20206;-82
2023/12/22 02:47:41;;;;;;;1.70;1.60;;;;;;;;;;5051719;28;20323;-82
2023/12/22 02:50:09;;;;;;;2.53;1.80;;;;;;;;;;5050950;28;20676;-82
2023/12/22 02:52:36;;;;;;;2.90;1.60;;;;;;;;;;5051545;28;20210;-82
2023/12/22 02:55:03;;;;;;;1.40;1.40;;;;;;;;;;5051000;28;20621;-83
2023/12/22 02:57:31;;;;;;;1.40;1.40;;;;;;;;;;5051533;28;20216;-82
2023/12/22 02:59:58;;;;;;;1.50;1.50;;;;;;;;;;5051105;28;20664;-82
2023/12/22 03:02:26;;;;;;;1.53;1.53;;;;;;;;;;5049776;28;20263;-82
2023/12/22 03:04:53;;;;;;;1.43;1.43;;;;;;;;;;5050795;28;20260;-82
2023/12/22 03:07:20;;;;;;;1.50;1.50;;;;;;;;;;5050542;28;20237;-82
2023/12/22 03:09:47;;;;;;;1.50;1.50;;;;;;;;;;5050325;28;20612;-82
2023/12/22 03:12:14;;;;;;;1.40;1.40;;;;;;;;;;5070077;28;20237;-83
2023/12/22 03:14:42;;;;;;;1.40;1.40;;;;;;;;;;5052765;28;20217;-82
2023/12/22 03:17:10;;;;;;;1.40;1.40;;;;;;;;;;5051986;28;20256;-82
2023/12/22 03:19:37;;;;;;;1.67;1.57;;;;;;;;;;5054458;28;20226;-82
2023/12/22 03:22:04;;;;;;;1.50;1.50;;;;;;;;;;5053870;28;20265;-82
2023/12/22 03:24:31;;;;;;;1.60;1.60;;;;;;;;;;5054559;28;20216;-82
2023/12/22 03:26:58;;;;;;;1.50;1.50;;;;;;;;;;5054182;28;20238;-83
2023/12/22 03:29:25;;;;;;;1.83;1.73;;;;;;;;;;5054390;28;20230;-83
2023/12/22 03:31:54;;;;;;;1.50;1.50;;;;;;;;;;5053975;28;20233;-82
2023/12/22 03:34:21;;;;;;;1.60;1.60;;;;;;;;;;5054374;28;20206;-83
2023/12/22 03:36:48;;;;;;;1.60;1.60;;;;;;;;;;5053647;28;20294;-82
2023/12/22 03:39:15;;;;;;;1.70;1.60;;;;;;;;;;5048986;28;20221;-83
2023/12/22 03:41:42;;;;;;;1.70;1.70;;;;;;;;;;5047705;28;20324;-82
2023/12/22 03:44:09;;;;;;;1.70;1.60;;;;;;;;;;5054493;28;20201;-82
2023/12/22 03:46:36;;;;;;;2.30;1.90;;;;;;;;;;5053620;28;20238;-83
2023/12/22 03:49:05;;;;;;;1.60;1.60;;;;;;;;;;5043878;28;20226;-83
2023/12/22 03:51:32;;;;;;;1.70;1.60;;;;;;;;;;5053902;28;20668;-83
2023/12/22 03:53:59;;;;;;;3.93;1.70;;;;;;;;;;5054050;28;20259;-83
2023/12/22 03:56:26;;;;;;;1.93;1.93;;;;;;;;;;5033777;28;20300;-82
2023/12/22 03:58:52;;;;;;;2.17;1.97;;;;;;;;;;5034175;28;20238;-82
2023/12/22 04:01:19;;;;;;;1.37;1.37;;;;;;;;;;5036426;28;20704;-83
2023/12/22 04:03:46;;;;;;;2.17;2.00;;;;;;;;;;5053886;28;20206;-82
2023/12/22 04:06:14;;;;;;;1.70;1.60;;;;;;;;;;5052720;28;20244;-82
2023/12/22 04:08:41;;;;;;;1.90;1.80;;;;;;;;;;5053988;28;20282;-82
2023/12/22 04:11:08;;;;;;;3.40;1.80;;;;;;;;;;5048192;28;20633;-82
2023/12/22 04:13:35;;;;;;;2.87;2.17;;;;;;;;;;5053544;28;20225;-82
2023/12/22 04:16:04;;;;;;;2.10;1.90;;;;;;;;;;5052933;28;20650;-82
2023/12/22 04:18:31;;;;;;;2.10;1.80;;;;;;;;;;5052752;28;20227;-83
2023/12/22 04:20:58;;;;;;;3.37;1.90;;;;;;;;;;5046534;28;20786;-83
2023/12/22 04:23:26;;;;;;;1.90;1.80;;;;;;;;;;5053289;28;20217;-82
2023/12/22 04:25:53;;;;;;;2.40;1.73;;;;;;;;;;5053204;28;20233;-82
2023/12/22 04:28:20;;;;;;;5.47;2.00;;;;;;;;;;5041761;28;20279;-82
2023/12/22 04:30:47;;;;;;;2.17;2.07;;;;;;;;;;5052813;28;20241;-82
2023/12/22 04:33:14;;;;;;;2.60;1.87;;;;;;;;;;5052900;28;20212;-82
2023/12/22 04:35:41;;;;;;;2.57;1.80;;;;;;;;;;5049482;28;20258;-82
2023/12/22 04:38:08;;;;;;;2.07;1.97;;;;;;;;;;5042238;28;20221;-82
2023/12/22 04:40:36;;;;;;;4.30;2.27;;;;;;;;;;5052759;28;20653;-83
2023/12/22 04:43:03;;;;;;;3.03;1.93;;;;;;;;;;5044611;28;20206;-82
2023/12/22 04:45:30;;;;;;;2.83;2.60;;;;;;;;;;5036664;28;20241;-82
2023/12/22 04:47:57;;;;;;;1.63;1.63;;;;;;;;;;5053212;28;20635;-83
2023/12/22 04:50:24;;;;;;;3.40;2.07;;;;;;;;;;5052571;28;20316;-82
2023/12/22 04:52:51;;;;;;;4.87;1.90;;;;;;;;;;5043680;28;20205;-83
2023/12/22 04:55:19;;;;;;;6.27;2.43;;;;;;;;;;5039762;28;20203;-82
2023/12/22 04:57:47;;;;;;;2.40;2.20;;;;;;;;;;5052789;28;20569;-82
2023/12/22 05:00:15;;;;;;;3.77;1.77;;;;;;;;;;5052637;28;20263;-83
2023/12/22 05:02:42;;;;;;;1.80;1.77;;;;;;;;;;5036553;28;20213;-82
2023/12/22 05:05:09;;;;;;;3.67;1.83;;;;;;;;;;5050917;28;20288;-82
2023/12/22 05:07:36;;;;;;;2.93;1.70;;;;;;;;;;5052893;28;20233;-83
2023/12/22 05:10:03;;;;;;;1.80;1.70;;;;;;;;;;5052093;28;20698;-83
2023/12/22 05:12:30;;;;;;;1.70;1.60;;;;;;;;;;5052324;28;20296;-83
2023/12/22 05:14:59;;;;;;;1.97;1.80;;;;;;;;;;5052802;28;20277;-83
2023/12/22 05:17:26;;;;;;;3.83;1.80;;;;;;;;;;5051893;28;20237;-82
2023/12/22 05:19:53;;;;;;;1.80;1.80;;;;;;;;;;5052387;28;20610;-82
2023/12/22 05:22:20;;;;;;;2.37;2.17;;;;;;;;;;5042081;28;20238;-82
2023/12/22 05:24:47;;;;;;;2.13;1.93;;;;;;;;;;5032781;28;20207;-82
2023/12/22 05:27:14;;;;;;;2.07;1.87;;;;;;;;;;5050061;28;20323;-82
2023/12/22 05:29:41;;;;;;;2.20;2.10;;;;;;;;;;5052177;28;20312;-82
2023/12/22 05:32:10;;;;;;;1.60;1.50;;;;;;;;;;5051424;28;20263;-83
2023/12/22 05:34:37;;;;;;;2.10;1.90;;;;;;;;;;5059841;28;20259;-82
2023/12/22 05:37:04;;;;;;;3.07;1.87;;;;;;;;;;5055443;28;20668;-82
2023/12/22 05:39:31;;;;;;;1.83;1.73;;;;;;;;;;5051951;28;20236;-82
2023/12/22 05:41:58;;;;;;;2.47;2.20;;;;;;;;;;5051626;28;20739;-82
2023/12/22 05:44:29;;;;;;;3.10;1.93;;;;;;;;;;5035157;28;20253;-82
2023/12/22 05:46:56;;;;;;;2.60;1.80;;;;;;;;;;5035109;28;20234;-83
2023/12/22 05:49:25;;;;;;;2.50;1.80;;;;;;;;;;5050624;28;20241;-87
2023/12/22 05:51:52;;;;;;;1.77;1.73;;;;;;;;;;5050906;28;20312;-84
2023/12/22 05:54:20;;;;;;;1.60;1.60;;;;;;;;;;5051889;28;20202;-83
2023/12/22 05:56:47;;;;;;;1.87;1.70;;;;;;;;;;5051270;28;20234;-82
2023/12/22 05:59:13;;;;;;;2.20;1.93;;;;;;;;;;5051774;28;20635;-82
2023/12/22 06:01:40;;;;;;;2.53;1.60;;;;;;;;;;5051394;28;20233;-83
2023/12/22 06:04:07;;;;;;;4.20;2.00;;;;;;;;;;5051738;28;20209;-83
2023/12/22 06:06:35;;;;;;;1.87;1.77;;;;;;;;;;5050964;28;20227;-84
2023/12/22 06:09:02;;;;;;;5.93;2.00;;;;;;;;;;5051691;28;20281;-84
2023/12/22 06:11:30;;;;;;;2.00;1.90;;;;;;;;;;5051054;28;20240;-81
2023/12/22 06:13:57;;;;;;;1.97;1.77;;;;;;;;;;5048014;28;20673;-80
2023/12/22 06:16:24;;;;;;;3.10;2.43;;;;;;;;;;5030734;28;20248;-79
2023/12/22 06:18:51;;;;;;;2.43;2.13;;;;;;;;;;5031767;28;20296;-79
2023/12/22 06:21:18;;;;;;;1.90;1.80;;;;;;;;;;5041188;28;20244;-79
2023/12/22 06:23:46;;;;;;;5.17;2.30;;;;;;;;;;5051031;28;20216;-79
2023/12/22 06:26:13;;;;;;;1.97;1.87;;;;;;;;;;5050701;28;20249;-79
2023/12/22 06:28:40;;;;;;;1.70;1.63;;;;;;;;;;5050917;28;20264;-80
2023/12/22 06:31:08;;;;;;;1.63;1.63;;;;;;;;;;5050582;28;20738;-79
2023/12/22 06:33:35;;;;;;;2.07;1.87;;;;;;;;;;5051057;28;20214;-79
2023/12/22 06:36:02;;;;;;;2.27;1.80;;;;;;;;;;5050575;28;20239;-79
2023/12/22 06:38:29;;;;;;;1.43;1.43;;;;;;;;;;5051046;28;20287;-80
2023/12/22 06:40:57;;;;;;;2.00;1.90;;;;;;;;;;5050623;28;20230;-80
2023/12/22 06:43:24;;;;;;;2.07;1.70;;;;;;;;;;5050695;28;20586;-79
2023/12/22 06:45:54;;;;;;;2.97;1.80;;;;;;;;;;5053545;28;20287;-80
2023/12/22 06:48:21;;;;;;;3.43;2.10;;;;;;;;;;5054857;28;20234;-80
2023/12/22 06:50:49;;;;;;;2.20;2.00;;;;;;;;;;5054544;28;20742;-80
2023/12/22 06:53:16;;;;;;;5.33;2.30;;;;;;;;;;5054504;28;20654;-80
2023/12/22 06:55:43;;;;;;;2.60;2.17;;;;;;;;;;5054453;28;20236;-80
2023/12/22 06:58:11;;;;;;;2.23;1.73;;;;;;;;;;5054541;28;20229;-79
2023/12/22 07:00:38;;;;;;;5.40;2.57;;;;;;;;;;5054281;28;20234;-78
2023/12/22 07:03:07;;;;;;;2.27;2.07;;;;;;;;;;5054518;28;20290;-80
2023/12/22 07:05:36;;;;;;;3.10;1.80;;;;;;;;;;5054242;28;20272;-80
2023/12/22 07:08:03;;;;;;;2.73;1.87;;;;;;;;;;5054550;28;20298;-80
2023/12/22 07:10:30;;;;;;;2.90;2.07;;;;;;;;;;5054119;28;20272;-80
2023/12/22 07:12:57;;;;;;;2.23;1.90;;;;;;;;;;5051510;28;20217;-79
2023/12/22 07:15:26;;;;;;;2.13;1.93;;;;;;;;;;5053661;28;20247;-80
2023/12/22 07:17:53;;;;;;;3.30;1.93;;;;;;;;;;5054364;28;20712;-80
2023/12/22 07:20:20;;;;;;;1.90;1.80;;;;;;;;;;5053579;28;20210;-80
2023/12/22 07:22:47;;;;;;;2.00;1.90;;;;;;;;;;5054310;28;20209;-80
2023/12/22 07:25:15;;;;;;;9.13;2.37;;;;;;;;;;5053571;28;20208;-80
2023/12/22 07:27:42;;;;;;;3.70;2.07;;;;;;;;;;5054225;28;21081;-81
2023/12/22 07:30:15;;;;;;;2.73;2.53;;;;;;;;;;5053476;28;20601;-81
2023/12/22 07:32:44;;;;;;;2.00;1.90;;;;;;;;;;5054336;28;20206;-80
2023/12/22 07:35:11;;;;;;;2.80;2.30;;;;;;;;;;5053530;28;20292;-80
2023/12/22 07:37:38;;;;;;;5.20;2.27;;;;;;;;;;5054076;28;20213;-80
2023/12/22 07:40:07;;;;;;;4.73;2.40;;;;;;;;;;5053372;28;20217;-80
2023/12/22 07:42:34;;;;;;;3.73;2.30;;;;;;;;;;5053638;28;20206;-80
2023/12/22 07:45:03;;;;;;;2.53;2.33;;;;;;;;;;5053988;28;20209;-80
2023/12/22 07:47:30;;;;;;;6.50;2.53;;;;;;;;;;5053561;28;20265;-80
2023/12/22 07:49:58;;;;;;;2.30;2.10;;;;;;;;;;5053692;28;20235;-81
2023/12/22 07:52:25;;;;;;;4.17;1.90;;;;;;;;;;5052922;28;20226;-81
2023/12/22 07:54:52;;;;;;;3.17;2.73;;;;;;;;;;5053668;28;20738;-80
2023/12/22 07:57:19;;;;;;;2.93;2.37;;;;;;;;;;5052350;28;20234;-79
2023/12/22 07:59:46;;;;;;;3.60;2.03;;;;;;;;;;5053422;28;20638;-79
2023/12/22 08:02:13;;;;;;;5.70;2.17;;;;;;;;;;5052728;28;20272;-79
2023/12/22 08:04:41;;;;;;;6.30;2.73;;;;;;;;;;5053721;28;20213;-79
2023/12/22 08:07:09;;;;;;;5.17;2.40;;;;;;;;;;5053110;28;20291;-79
2023/12/22 08:09:36;;;;;;;2.37;2.10;;;;;;;;;;5052128;28;20283;-79
2023/12/22 08:12:03;;;;;;;4.33;3.03;;;;;;;;;;5052860;28;20230;-79
2023/12/22 08:14:30;;;;;;;4.47;2.23;;;;;;;;;;5053096;28;20245;-79
2023/12/22 08:16:57;;;;;;;5.90;2.20;;;;;;;;;;5051912;28;20249;-79
2023/12/22 08:19:25;;;;;;;2.77;2.17;;;;;;;;;;5052335;28;20763;-79
2023/12/22 08:21:53;;;;;;;5.47;2.00;;;;;;;;;;5069292;28;20228;-79
2023/12/22 08:24:22;;;;;;;2.67;2.00;;;;;;;;;;5061192;28;20294;-79
2023/12/22 08:26:49;;;;;;;5.40;2.20;;;;;;;;;;5052183;28;20229;-79
2023/12/22 08:29:16;;;;;;;2.40;2.20;;;;;;;;;;5051960;28;20703;-79
2023/12/22 08:31:44;;;;;;;4.70;2.20;;;;;;;;;;5052053;28;20261;-78
2023/12/22 08:34:11;;;;;;;3.83;2.30;;;;;;;;;;5049838;28;20206;-79
2023/12/22 08:36:38;;;;;;;4.73;2.20;;;;;;;;;;5052098;28;20583;-79
2023/12/22 08:39:05;;;;;;;2.60;2.40;;;;;;;;;;5052211;28;20287;-79
2023/12/22 08:41:36;;;;;;;1.83;1.70;;;;;;;;;;5051662;28;20317;-79
2023/12/22 08:44:03;;;;;;;4.37;2.40;;;;;;;;;;5051790;28;20263;-78
2023/12/22 08:46:30;;;;;;;4.20;2.43;;;;;;;;;;5050170;28;20287;-78
2023/12/22 08:48:59;;;;;;;7.17;2.50;;;;;;;;;;5051691;28;20284;-78
2023/12/22 08:51:26;;;;;;;4.27;2.20;;;;;;;;;;5051282;28;20226;-79
2023/12/22 08:53:54;;;;;;;3.00;1.93;;;;;;;;;;5051742;28;20210;-79
2023/12/22 08:56:21;;;;;;;4.73;2.47;;;;;;;;;;5051279;28;20238;-80
2023/12/22 08:58:51;;;;;;;2.30;2.00;;;;;;;;;;5051510;28;20229;-80
2023/12/22 09:01:18;;;;;;;4.90;2.47;;;;;;;;;;5051154;28;20308;-78
2023/12/22 09:03:46;;;;;;;3.70;1.70;;;;;;;;;;5051927;28;20206;-78
2023/12/22 09:06:15;;;;;;;4.87;2.00;;;;;;;;;;5044606;28;20225;-78
2023/12/22 09:08:42;;;;;;;6.00;2.20;;;;;;;;;;5049169;28;20237;-78
2023/12/22 09:11:09;;;;;;;4.17;1.80;;;;;;;;;;5050438;28;20299;-78
2023/12/22 09:13:36;;;;;;;1.93;1.80;;;;;;;;;;5052292;28;20275;-85
2023/12/22 09:16:05;;;;;;;1.90;1.80;;;;;;;;;;5051656;28;20233;-86
2023/12/22 09:18:32;;;;;;;4.80;2.17;;;;;;;;;;5034045;28;20230;-86
2023/12/22 09:20:59;;;;;;;6.33;2.20;;;;;;;;;;5031868;28;20720;-86
2023/12/22 09:23:26;;;;;;;2.30;2.07;;;;;;;;;;5042582;28;20206;-86
2023/12/22 09:25:53;;;;;;;2.90;2.43;;;;;;;;;;5051521;28;20283;-86
2023/12/22 09:28:20;;;;;;;6.77;3.30;;;;;;;;;;5036441;28;20230;-86
2023/12/22 09:30:47;;;;;;;4.97;2.50;;;;;;;;;;5031739;28;20650;-86
2023/12/22 09:33:16;;;;;;;2.87;2.10;;;;;;;;;;5032469;28;20607;-86
2023/12/22 09:35:43;;;;;;;4.13;2.23;;;;;;;;;;5031681;28;20317;-85
2023/12/22 09:38:10;;;;;;;2.70;2.00;;;;;;;;;;5033493;28;20637;-86
2023/12/22 09:40:39;;;;;;;3.73;2.17;;;;;;;;;;5033068;28;20234;-87
2023/12/22 09:43:07;;;;;;;3.50;2.20;;;;;;;;;;5040140;28;20673;-86
2023/12/22 09:45:34;;;;;;;2.70;2.20;;;;;;;;;;5059368;28;20653;-86
2023/12/22 09:48:03;;;;;;;4.27;2.43;;;;;;;;;;5048915;28;20230;-84
2023/12/22 09:50:32;;;;;;;3.97;2.90;;;;;;;;;;5054833;28;20245;-87
2023/12/22 09:52:59;;;;;;;2.93;2.67;;;;;;;;;;5052231;28;20662;-87
2023/12/22 09:55:27;;;;;;;3.63;2.93;;;;;;;;;;5050930;28;20239;-86
2023/12/22 09:57:54;;;;;;;2.87;2.33;;;;;;;;;;5042530;28;20330;-86
2023/12/22 10:00:23;;;;;;;3.23;1.80;;;;;;;;;;5030953;28;20203;-86
2023/12/22 10:02:50;;;;;;;4.53;2.33;;;;;;;;;;5031968;28;20211;-85
2023/12/22 10:05:18;;;;;;;6.70;2.90;;;;;;;;;;5046663;28;20701;-86
2023/12/22 10:07:47;;;;;;;6.40;2.87;;;;;;;;;;5051324;28;20252;-86
2023/12/22 10:10:14;;;;;;;6.90;2.60;;;;;;;;;;5051328;28;20226;-86
2023/12/22 10:12:42;;;;;;;7.20;2.60;;;;;;;;;;5051197;28;20210;-85
2023/12/22 10:15:10;;;;;;;5.67;2.60;;;;;;;;;;5051001;28;20645;-86
2023/12/22 10:17:37;;;;;;;8.03;2.97;;;;;;;;;;5051662;28;20206;-86
2023/12/22 10:20:05;;;;;;;7.53;3.70;;;;;;;;;;5050854;28;20214;-86
2023/12/22 10:22:32;;;;;;;4.60;2.67;;;;;;;;;;5051505;28;20217;-86
2023/12/22 10:25:00;;;;;;;12.03;4.53;;;;;;;;;;5051110;28;20190;-87
2023/12/22 10:27:27;;;;;;;6.57;3.07;;;;;;;;;;5050312;28;20238;-86
2023/12/22 10:29:55;;;;;;;7.53;3.37;;;;;;;;;;5051392;28;20236;-87
2023/12/22 10:32:22;;;;;;;9.87;4.00;;;;;;;;;;5050547;28;20664;-87
2023/12/22 10:34:50;;;;;;;9.33;2.73;;;;;;;;;;5050670;28;20206;-87
2023/12/22 10:37:17;;;;;;;4.13;2.90;;;;;;;;;;5050206;28;20237;-86
2023/12/22 10:39:48;;;;;;;2.13;2.03;;;;;;;;;;5051067;28;20228;-86
2023/12/22 10:42:16;;;;;;;9.17;3.13;;;;;;;;;;5050693;28;20237;-87
2023/12/22 10:44:43;;;;;;;8.20;3.20;;;;;;;;;;5051032;28;20206;-87
2023/12/22 10:47:11;;;;;;;10.03;3.33;;;;;;;;;;5050157;28;20245;-87
2023/12/22 10:49:38;;;;;;;6.60;3.17;;;;;;;;;;5050777;28;20225;-87
2023/12/22 10:52:05;;;;;;;10.93;3.63;;;;;;;;;;5050365;28;20226;-87
2023/12/22 10:54:32;;;;;;;8.37;3.60;;;;;;;;;;5050997;28;20213;-87
2023/12/22 10:57:00;;;;;;;2.80;2.00;;;;;;;;;;5050573;28;20260;-87
2023/12/22 10:59:29;;;;;;;10.57;3.30;;;;;;;;;;5050248;28;20252;-87
2023/12/22 11:01:58;;;;;;;6.40;3.10;;;;;;;;;;5050307;28;20371;-87
2023/12/22 11:04:27;;;;;;;11.07;3.37;;;;;;;;;;5050760;28;20209;-87
2023/12/22 11:06:58;;;;;;;7.80;3.07;;;;;;;;;;5050365;28;20236;-88
2023/12/22 11:09:26;;;;;;;5.23;3.30;;;;;;;;;;5050705;28;20241;-87
2023/12/22 11:11:53;;;;;;;14.60;3.50;;;;;;;;;;5049914;28;20260;-88
2023/12/22 11:14:20;;;;;;;5.57;3.20;;;;;;;;;;5050296;28;20218;-87
2023/12/22 11:16:49;;;;;;;10.57;3.37;;;;;;;;;;5050208;28;20222;-87
2023/12/22 11:19:17;;;;;;;12.10;3.43;;;;;;;;;;5050361;28;20264;-87
2023/12/22 11:21:44;;;;;;;9.83;3.27;;;;;;;;;;5050158;28;20230;-87
2023/12/22 11:24:12;;;;;;;14.97;3.13;;;;;;;;;;5050118;28;20415;-87
2023/12/22 11:26:40;;;;;;;9.63;3.17;;;;;;;;;;5049845;28;20237;-87
2023/12/22 11:29:08;;;;;;;12.10;3.47;;;;;;;;;;5050219;28;20685;-87
2023/12/22 11:31:35;;;;;;;7.67;3.00;;;;;;;;;;5050570;28;20244;-87
2023/12/22 11:34:03;;;;;;;8.50;3.63;;;;;;;;;;5054247;28;20209;-87
2023/12/22 11:36:31;;;;;;;8.93;3.10;;;;;;;;;;5053344;28;20731;-87
2023/12/22 11:38:58;;;;;;;10.83;3.40;;;;;;;;;;5053838;28;20709;-88
2023/12/22 11:41:27;;;;;;;5.80;3.17;;;;;;;;;;5053557;28;20283;-87
2023/12/22 11:43:54;;;;;;;5.33;2.50;;;;;;;;;;5054089;28;20256;-87
2023/12/22 11:46:23;;;;;;;11.40;3.03;;;;;;;;;;5053159;28;20287;-86
2023/12/22 11:48:50;;;;;;;5.10;3.10;;;;;;;;;;5047022;28;20631;-87
2023/12/22 11:51:20;;;;;;;10.73;4.03;;;;;;;;;;5033204;28;20238;-87
2023/12/22 11:53:47;;;;;;;10.87;4.10;;;;;;;;;;5034568;28;20206;-87
2023/12/22 11:56:14;;;;;;;7.97;4.03;;;;;;;;;;5049853;28;20734;-86
2023/12/22 11:58:42;;;;;;;7.10;3.30;;;;;;;;;;5049641;28;20597;-86
2023/12/22 12:01:10;;;;;;;9.20;3.30;;;;;;;;;;5035020;28;20774;-86
2023/12/22 12:03:39;;;;;;;5.13;2.47;;;;;;;;;;5053777;28;20300;-86
2023/12/22 12:06:11;;;;;;;9.63;3.30;;;;;;;;;;5053258;28;20716;-86
2023/12/22 12:08:40;;;;;;;12.23;3.07;;;;;;;;;;5053866;28;20229;-85
2023/12/22 12:11:07;;;;;;;8.53;2.63;;;;;;;;;;5052946;28;20643;-85
2023/12/22 12:13:35;;;;;;;7.33;2.60;;;;;;;;;;5051809;28;20213;-84
2023/12/22 12:16:02;;;;;;;2.13;2.03;;;;;;;;;;5052625;28;20720;-84
2023/12/22 12:18:30;;;;;;;1.50;1.50;;;;;;;;;;5053149;28;20320;-85
2023/12/22 12:20:58;;;;;;;2.30;2.10;;;;;;;;;;5053015;28;20321;-85
2023/12/22 12:23:26;;;;;;;4.40;2.13;;;;;;;;;;5053300;28;20217;-85
2023/12/22 12:25:54;;;;;;;4.47;1.97;;;;;;;;;;5052243;28;20279;-85
2023/12/22 12:28:27;;;;;;;3.80;2.23;;;;;;;;;;5052958;28;20778;-85
2023/12/22 12:30:59;;;;;;;4.07;1.93;;;;;;;;;;5052828;28;20605;-85
2023/12/22 12:33:27;;;;;;;2.57;2.10;;;;;;;;;;5053104;28;20243;-85
2023/12/22 12:35:54;;;;;;;3.27;2.00;;;;;;;;;;5052605;28;20240;-84
2023/12/22 12:38:22;;;;;;;6.67;2.53;;;;;;;;;;5052745;28;20237;-85
2023/12/22 12:40:51;;;;;;;6.97;2.37;;;;;;;;;;5052743;28;20316;-84
2023/12/22 12:43:20;;;;;;;5.80;2.13;;;;;;;;;;5052728;28;20225;-84
2023/12/22 12:45:48;;;;;;;5.90;2.47;;;;;;;;;;5052037;28;20668;-84
2023/12/22 12:48:18;;;;;;;6.97;2.90;;;;;;;;;;5053365;28;20234;-86
2023/12/22 12:50:46;;;;;;;5.50;2.80;;;;;;;;;;5052122;28;20316;-85
2023/12/22 12:53:13;;;;;;;10.27;2.47;;;;;;;;;;5053134;28;20209;-85
2023/12/22 12:55:40;;;;;;;3.33;2.50;;;;;;;;;;5051878;28;20237;-85
2023/12/22 12:58:07;;;;;;;4.13;2.50;;;;;;;;;;5052863;28;20225;-85
2023/12/22 13:00:36;;;;;;;2.03;1.87;;;;;;;;;;5052162;28;20295;-85
2023/12/22 13:03:04;;;;;;;6.50;2.73;;;;;;;;;;5052494;28;20734;-85
2023/12/22 13:05:31;;;;;;;11.93;3.63;;;;;;;;;;5052031;28;20233;-85
2023/12/22 13:08:08;;;;;;;6.00;2.53;;;;;;;;;;5052892;28;20230;-85
2023/12/22 13:10:35;;;;;;;9.60;2.93;;;;;;;;;;5052995;28;20322;-85
2023/12/22 13:13:02;;;;;;;4.47;2.53;;;;;;;;;;5052872;28;20228;-85
2023/12/22 13:15:30;;;;;;;7.80;2.87;;;;;;;;;;5051980;28;20238;-85
2023/12/22 13:17:58;;;;;;;7.67;2.90;;;;;;;;;;5051927;28;20226;-85
2023/12/22 13:20:25;;;;;;;5.97;2.50;;;;;;;;;;5051977;28;20701;-86
2023/12/22 13:22:52;;;;;;;3.57;2.20;;;;;;;;;;5053234;28;20209;-85
2023/12/22 13:25:21;;;;;;;5.43;2.10;;;;;;;;;;5052359;28;20202;-85
2023/12/22 13:27:48;;;;;;;2.80;2.37;;;;;;;;;;5054500;28;20301;-85
2023/12/22 13:30:16;;;;;;;4.53;2.10;;;;;;;;;;5058118;28;20236;-85
2023/12/22 13:32:43;;;;;;;4.87;2.67;;;;;;;;;;5058048;28;20206;-86
2023/12/22 13:35:12;;;;;;;3.93;2.20;;;;;;;;;;5051540;28;20213;-85
2023/12/22 13:37:43;;;;;;;8.23;2.00;;;;;;;;;;5052060;28;20210;-85
2023/12/22 13:40:11;;;;;;;4.13;1.80;;;;;;;;;;5051284;28;20673;-86
2023/12/22 13:42:38;;;;;;;2.20;1.70;;;;;;;;;;5051961;28;20210;-85
2023/12/22 13:45:06;;;;;;;1.90;1.80;;;;;;;;;;5051519;28;20293;-84
2023/12/22 13:47:33;;;;;;;2.53;1.63;;;;;;;;;;5051933;28;20206;-85
2023/12/22 13:50:00;;;;;;;3.23;2.40;;;;;;;;;;5052075;28;20226;-86
2023/12/22 13:52:31;;;;;;;7.43;2.80;;;;;;;;;;5051392;28;20233;-85
2023/12/22 13:55:00;;;;;;;2.23;2.03;;;;;;;;;;5051674;28;20218;-85
2023/12/22 13:57:28;;;;;;;2.73;1.97;;;;;;;;;;5051575;28;20629;-86
2023/12/22 13:59:55;;;;;;;2.00;1.80;;;;;;;;;;5052257;28;20202;-86
2023/12/22 14:02:23;;;;;;;1.30;1.30;;;;;;;;;;5051182;28;20241;-86
2023/12/22 14:04:50;;;;;;;1.40;1.40;;;;;;;;;;5054139;28;20238;-86
2023/12/22 14:07:17;;;;;;;1.40;1.40;;;;;;;;;;5058556;28;20755;-86
2023/12/22 14:09:45;;;;;;;1.60;1.50;;;;;;;;;;5058045;28;20233;-87
2023/12/22 14:12:12;;;;;;;1.43;1.43;;;;;;;;;;5055847;28;20235;-86
2023/12/22 14:14:39;;;;;;;1.63;1.40;;;;;;;;;;5057196;28;20290;-87
2023/12/22 14:17:06;;;;;;;1.57;1.50;;;;;;;;;;5057559;28;20233;-86
2023/12/22 14:19:33;;;;;;;1.80;1.53;;;;;;;;;;5067861;28;20260;-86
2023/12/22 14:22:01;;;;;;;1.80;1.70;;;;;;;;;;5052159;28;20683;-86
2023/12/22 14:24:28;;;;;;;1.50;1.40;;;;;;;;;;5052399;28;20218;-87
2023/12/22 14:26:57;;;;;;;1.40;1.40;;;;;;;;;;5051614;28;20229;-87
2023/12/22 14:29:24;;;;;;;2.20;1.33;;;;;;;;;;5052076;28;20229;-87
2023/12/22 14:31:51;;;;;;;1.93;1.27;;;;;;;;;;5070675;28;20982;-87
2023/12/22 14:34:18;;;;;;;1.50;1.40;;;;;;;;;;5072146;28;20633;-86
2023/12/22 14:36:45;;;;;;;1.30;1.30;;;;;;;;;;5061546;28;20230;-86
2023/12/22 14:39:13;;;;;;;1.77;1.67;;;;;;;;;;5052148;28;20229;-85
2023/12/22 14:41:40;;;;;;;1.30;1.30;;;;;;;;;;5050799;28;20704;-85
2023/12/22 14:44:08;;;;;;;1.30;1.30;;;;;;;;;;5051481;28;20233;-85